sensor_id;sensor_type;location;lat;lon;timestamp;P1;durP1;ratioP1;P2;durP2;ratioP2
17965;SDS011;9108;53.204;10.424;2023-04-25T13:31:00;7.65;;;1.20;;
17965;SDS011;9108;53.204;10.424;2023-04-25T13:33:27;6.85;;;1.33;;
17965;SDS011;9108;53.204;10.424;2023-04-25T13:35:55;8.27;;;1.38;;
17965;SDS011;9108;53.204;10.424;2023-04-25T13:38:22;7.60;;;1.00;;
17965;SDS011;9108;53.204;10.424;2023-04-25T13:40:50;5.65;;;1.00;;
17965;SDS011;9108;53.204;10.424;2023-04-25T13:43:18;5.65;;;0.93;;
17965;SDS011;9108;53.204;10.424;2023-04-25T13:45:45;7.70;;;0.93;;
17965;SDS011;9108;53.204;10.424;2023-04-25T13:48:14;7.22;;;1.10;;
17965;SDS011;9108;53.204;10.424;2023-04-25T13:50:45;4.70;;;0.90;;
17965;SDS011;9108;53.204;10.424;2023-04-25T13:53:13;3.97;;;0.90;;
17965;SDS011;9108;53.204;10.424;2023-04-25T13:55:40;5.47;;;0.90;;
17965;SDS011;9108;53.204;10.424;2023-04-25T13:58:07;6.05;;;1.02;;
17965;SDS011;9108;53.204;10.424;2023-04-25T14:00:35;4.97;;;0.98;;
17965;SDS011;9108;53.204;10.424;2023-04-25T14:03:04;6.65;;;1.10;;
17965;SDS011;9108;53.204;10.424;2023-04-25T14:05:33;3.75;;;0.80;;
17965;SDS011;9108;53.204;10.424;2023-04-25T14:08:17;4.90;;;0.90;;
17965;SDS011;9108;53.204;10.424;2023-04-25T14:10:45;5.72;;;1.00;;
17965;SDS011;9108;53.204;10.424;2023-04-25T14:13:12;6.35;;;1.20;;
17965;SDS011;9108;53.204;10.424;2023-04-25T14:15:40;7.33;;;1.30;;
17965;SDS011;9108;53.204;10.424;2023-04-25T14:18:07;10.00;;;1.30;;
17965;SDS011;9108;53.204;10.424;2023-04-25T14:20:35;6.95;;;1.27;;
17965;SDS011;9108;53.204;10.424;2023-04-25T14:23:02;5.60;;;1.20;;
17965;SDS011;9108;53.204;10.424;2023-04-25T14:25:30;6.45;;;1.50;;
17965;SDS011;9108;53.204;10.424;2023-04-25T14:27:57;7.55;;;1.33;;
17965;SDS011;9108;53.204;10.424;2023-04-25T14:30:24;7.32;;;1.40;;
17965;SDS011;9108;53.204;10.424;2023-04-25T14:32:51;8.03;;;1.27;;
17965;SDS011;9108;53.204;10.424;2023-04-25T14:35:19;7.00;;;1.10;;
17965;SDS011;9108;53.204;10.424;2023-04-25T14:37:48;8.70;;;1.40;;
17965;SDS011;9108;53.204;10.424;2023-04-25T14:40:17;11.50;;;1.77;;
17965;SDS011;9108;53.204;10.424;2023-04-25T14:42:47;8.10;;;1.60;;
17965;SDS011;9108;53.204;10.424;2023-04-25T14:45:15;8.18;;;1.52;;
17965;SDS011;9108;53.204;10.424;2023-04-25T14:47:42;7.88;;;1.50;;
17965;SDS011;9108;53.204;10.424;2023-04-25T14:50:10;9.15;;;1.50;;
17965;SDS011;9108;53.204;10.424;2023-04-25T14:52:37;7.15;;;1.40;;
17965;SDS011;9108;53.204;10.424;2023-04-25T14:55:06;7.53;;;1.35;;
17965;SDS011;9108;53.204;10.424;2023-04-25T14:57:33;5.50;;;1.40;;
17965;SDS011;9108;53.204;10.424;2023-04-25T15:00:01;8.05;;;1.30;;
17965;SDS011;9108;53.204;10.424;2023-04-25T15:02:30;10.88;;;1.45;;
17965;SDS011;9108;53.204;10.424;2023-04-25T15:04:57;8.02;;;1.42;;
17965;SDS011;9108;53.204;10.424;2023-04-25T15:07:24;8.07;;;1.20;;
17965;SDS011;9108;53.204;10.424;2023-04-25T15:09:52;7.63;;;1.40;;
17965;SDS011;9108;53.204;10.424;2023-04-25T15:12:22;5.20;;;1.20;;
17965;SDS011;9108;53.204;10.424;2023-04-25T15:14:53;6.20;;;1.35;;
17965;SDS011;9108;53.204;10.424;2023-04-25T15:17:20;7.22;;;1.40;;
17965;SDS011;9108;53.204;10.424;2023-04-25T15:19:47;8.32;;;1.33;;
17965;SDS011;9108;53.204;10.424;2023-04-25T15:22:15;8.20;;;1.40;;
17965;SDS011;9108;53.204;10.424;2023-04-25T15:24:42;7.55;;;1.45;;
17965;SDS011;9108;53.204;10.424;2023-04-25T15:27:09;6.33;;;1.37;;
17965;SDS011;9108;53.204;10.424;2023-04-25T15:29:37;11.18;;;1.67;;
17965;SDS011;9108;53.204;10.424;2023-04-25T15:32:06;8.05;;;1.63;;
17965;SDS011;9108;53.204;10.424;2023-04-25T15:34:33;9.10;;;1.67;;
17965;SDS011;9108;53.204;10.424;2023-04-25T15:37:00;7.68;;;1.40;;
17965;SDS011;9108;53.204;10.424;2023-04-25T15:39:28;7.72;;;1.20;;
17965;SDS011;9108;53.204;10.424;2023-04-25T15:41:55;5.93;;;1.20;;
17965;SDS011;9108;53.204;10.424;2023-04-25T15:44:23;5.28;;;1.10;;
17965;SDS011;9108;53.204;10.424;2023-04-25T15:46:51;9.68;;;1.42;;
17965;SDS011;9108;53.204;10.424;2023-04-25T15:49:18;8.65;;;1.48;;
17965;SDS011;9108;53.204;10.424;2023-04-25T15:51:47;9.13;;;1.50;;
17965;SDS011;9108;53.204;10.424;2023-04-25T15:54:14;8.45;;;1.50;;
17965;SDS011;9108;53.204;10.424;2023-04-25T15:56:41;8.98;;;1.73;;
17965;SDS011;9108;53.204;10.424;2023-04-25T15:59:09;10.43;;;1.50;;
17965;SDS011;9108;53.204;10.424;2023-04-25T16:01:36;8.70;;;1.70;;
17965;SDS011;9108;53.204;10.424;2023-04-25T16:04:05;11.90;;;1.40;;
17965;SDS011;9108;53.204;10.424;2023-04-25T16:06:47;11.35;;;1.60;;
17965;SDS011;9108;53.204;10.424;2023-04-25T16:09:14;9.10;;;1.40;;
17965;SDS011;9108;53.204;10.424;2023-04-25T16:11:42;7.75;;;1.50;;
17965;SDS011;9108;53.204;10.424;2023-04-25T16:14:09;7.47;;;1.50;;
17965;SDS011;9108;53.204;10.424;2023-04-25T16:16:51;8.45;;;1.42;;
17965;SDS011;9108;53.204;10.424;2023-04-25T16:19:20;12.77;;;1.55;;
17965;SDS011;9108;53.204;10.424;2023-04-25T16:21:48;9.07;;;1.50;;
17965;SDS011;9108;53.204;10.424;2023-04-25T16:24:26;6.35;;;1.23;;
17965;SDS011;9108;53.204;10.424;2023-04-25T16:26:53;7.68;;;1.48;;
17965;SDS011;9108;53.204;10.424;2023-04-25T16:29:20;8.13;;;1.27;;
17965;SDS011;9108;53.204;10.424;2023-04-25T16:31:50;6.63;;;1.48;;
17965;SDS011;9108;53.204;10.424;2023-04-25T16:34:17;9.10;;;1.45;;
17965;SDS011;9108;53.204;10.424;2023-04-25T16:36:48;8.38;;;1.20;;
17965;SDS011;9108;53.204;10.424;2023-04-25T16:39:16;7.40;;;1.38;;
17965;SDS011;9108;53.204;10.424;2023-04-25T16:41:45;8.32;;;1.10;;
17965;SDS011;9108;53.204;10.424;2023-04-25T16:44:13;10.20;;;1.50;;
17965;SDS011;9108;53.204;10.424;2023-04-25T16:46:40;8.35;;;1.40;;
17965;SDS011;9108;53.204;10.424;2023-04-25T16:49:08;29.57;;;11.83;;
17965;SDS011;9108;53.204;10.424;2023-04-25T16:51:35;13.23;;;4.43;;
17965;SDS011;9108;53.204;10.424;2023-04-25T16:54:03;9.80;;;1.63;;
17965;SDS011;9108;53.204;10.424;2023-04-25T16:56:31;8.27;;;1.40;;
17965;SDS011;9108;53.204;10.424;2023-04-25T16:58:58;8.55;;;1.70;;
17965;SDS011;9108;53.204;10.424;2023-04-25T17:01:28;8.50;;;1.63;;
17965;SDS011;9108;53.204;10.424;2023-04-25T17:03:56;8.25;;;1.50;;
17965;SDS011;9108;53.204;10.424;2023-04-25T17:06:24;7.63;;;1.42;;
17965;SDS011;9108;53.204;10.424;2023-04-25T17:08:53;6.43;;;1.25;;
17965;SDS011;9108;53.204;10.424;2023-04-25T17:11:24;7.38;;;1.55;;
17965;SDS011;9108;53.204;10.424;2023-04-25T17:13:52;10.60;;;1.50;;
17965;SDS011;9108;53.204;10.424;2023-04-25T17:16:19;6.68;;;1.20;;
17965;SDS011;9108;53.204;10.424;2023-04-25T17:18:47;6.78;;;1.45;;
17965;SDS011;9108;53.204;10.424;2023-04-25T17:21:15;9.57;;;1.42;;
17965;SDS011;9108;53.204;10.424;2023-04-25T17:23:42;8.63;;;1.35;;
17965;SDS011;9108;53.204;10.424;2023-04-25T17:26:10;9.23;;;1.50;;
17965;SDS011;9108;53.204;10.424;2023-04-25T17:28:38;9.30;;;1.42;;
17965;SDS011;9108;53.204;10.424;2023-04-25T17:31:09;8.35;;;1.42;;
17965;SDS011;9108;53.204;10.424;2023-04-25T17:33:38;7.90;;;1.30;;
17965;SDS011;9108;53.204;10.424;2023-04-25T17:36:08;7.18;;;1.50;;
17965;SDS011;9108;53.204;10.424;2023-04-25T17:38:36;6.87;;;1.10;;
17965;SDS011;9108;53.204;10.424;2023-04-25T17:41:03;7.50;;;1.40;;
17965;SDS011;9108;53.204;10.424;2023-04-25T17:43:30;10.27;;;1.52;;
17965;SDS011;9108;53.204;10.424;2023-04-25T17:45:59;12.15;;;1.63;;
17965;SDS011;9108;53.204;10.424;2023-04-25T17:48:27;8.73;;;1.60;;
17965;SDS011;9108;53.204;10.424;2023-04-25T17:50:55;5.88;;;1.35;;
17965;SDS011;9108;53.204;10.424;2023-04-25T17:53:23;7.82;;;1.25;;
17965;SDS011;9108;53.204;10.424;2023-04-25T17:55:50;5.20;;;1.00;;
17965;SDS011;9108;53.204;10.424;2023-04-25T17:58:17;4.93;;;0.97;;
17965;SDS011;9108;53.204;10.424;2023-04-25T18:00:45;5.00;;;1.13;;
17965;SDS011;9108;53.204;10.424;2023-04-25T18:03:13;3.53;;;0.90;;
17965;SDS011;9108;53.204;10.424;2023-04-25T18:05:41;7.10;;;1.10;;
17965;SDS011;9108;53.204;10.424;2023-04-25T18:08:08;7.60;;;1.20;;
17965;SDS011;9108;53.204;10.424;2023-04-25T18:10:38;7.20;;;1.20;;
17965;SDS011;9108;53.204;10.424;2023-04-25T18:13:05;4.90;;;1.15;;
17965;SDS011;9108;53.204;10.424;2023-04-25T18:15:33;9.57;;;1.25;;
17965;SDS011;9108;53.204;10.424;2023-04-25T18:18:00;4.65;;;1.20;;
17965;SDS011;9108;53.204;10.424;2023-04-25T18:20:36;8.55;;;1.63;;
17965;SDS011;9108;53.204;10.424;2023-04-25T18:23:04;5.75;;;1.27;;
17965;SDS011;9108;53.204;10.424;2023-04-25T18:25:33;8.98;;;1.30;;
17965;SDS011;9108;53.204;10.424;2023-04-25T18:28:00;6.47;;;1.13;;
17965;SDS011;9108;53.204;10.424;2023-04-25T18:30:28;10.02;;;1.20;;
17965;SDS011;9108;53.204;10.424;2023-04-25T18:32:55;9.00;;;1.38;;
17965;SDS011;9108;53.204;10.424;2023-04-25T18:35:25;9.43;;;1.50;;
17965;SDS011;9108;53.204;10.424;2023-04-25T18:37:54;8.88;;;1.55;;
17965;SDS011;9108;53.204;10.424;2023-04-25T18:40:24;8.00;;;1.40;;
17965;SDS011;9108;53.204;10.424;2023-04-25T18:42:51;8.80;;;1.40;;
17965;SDS011;9108;53.204;10.424;2023-04-25T18:45:19;10.23;;;1.50;;
17965;SDS011;9108;53.204;10.424;2023-04-25T18:47:46;9.98;;;1.60;;
17965;SDS011;9108;53.204;10.424;2023-04-25T18:50:14;10.52;;;1.30;;
17965;SDS011;9108;53.204;10.424;2023-04-25T18:52:44;8.40;;;1.60;;
17965;SDS011;9108;53.204;10.424;2023-04-25T18:55:20;9.55;;;1.50;;
17965;SDS011;9108;53.204;10.424;2023-04-25T18:57:47;12.07;;;1.77;;
17965;SDS011;9108;53.204;10.424;2023-04-25T19:00:15;12.82;;;1.70;;
17965;SDS011;9108;53.204;10.424;2023-04-25T19:02:42;12.30;;;1.92;;
17965;SDS011;9108;53.204;10.424;2023-04-25T19:05:12;10.60;;;1.65;;
17965;SDS011;9108;53.204;10.424;2023-04-25T19:07:39;11.02;;;1.63;;
17965;SDS011;9108;53.204;10.424;2023-04-25T19:10:06;13.07;;;1.60;;
17965;SDS011;9108;53.204;10.424;2023-04-25T19:12:37;9.23;;;1.63;;
17965;SDS011;9108;53.204;10.424;2023-04-25T19:15:05;11.30;;;2.03;;
17965;SDS011;9108;53.204;10.424;2023-04-25T19:17:33;8.48;;;2.00;;
17965;SDS011;9108;53.204;10.424;2023-04-25T19:20:01;9.63;;;2.10;;
17965;SDS011;9108;53.204;10.424;2023-04-25T19:22:31;14.57;;;1.98;;
17965;SDS011;9108;53.204;10.424;2023-04-25T19:25:06;11.20;;;1.90;;
17965;SDS011;9108;53.204;10.424;2023-04-25T19:27:36;15.63;;;2.20;;
17965;SDS011;9108;53.204;10.424;2023-04-25T19:30:07;8.68;;;1.63;;
17965;SDS011;9108;53.204;10.424;2023-04-25T19:32:38;9.73;;;1.77;;
17965;SDS011;9108;53.204;10.424;2023-04-25T19:35:06;10.10;;;1.73;;
17965;SDS011;9108;53.204;10.424;2023-04-25T19:37:33;10.05;;;2.03;;
17965;SDS011;9108;53.204;10.424;2023-04-25T19:40:01;10.05;;;1.52;;
17965;SDS011;9108;53.204;10.424;2023-04-25T19:42:31;11.88;;;1.67;;
17965;SDS011;9108;53.204;10.424;2023-04-25T19:45:00;12.00;;;1.90;;
17965;SDS011;9108;53.204;10.424;2023-04-25T19:47:27;10.32;;;1.75;;
17965;SDS011;9108;53.204;10.424;2023-04-25T19:49:54;16.95;;;2.28;;
17965;SDS011;9108;53.204;10.424;2023-04-25T19:52:21;11.18;;;1.77;;
17965;SDS011;9108;53.204;10.424;2023-04-25T19:54:49;13.63;;;2.00;;
17965;SDS011;9108;53.204;10.424;2023-04-25T19:57:16;14.52;;;1.90;;
17965;SDS011;9108;53.204;10.424;2023-04-25T19:59:43;13.75;;;1.85;;
17965;SDS011;9108;53.204;10.424;2023-04-25T20:02:13;13.23;;;1.67;;
17965;SDS011;9108;53.204;10.424;2023-04-25T20:04:42;9.95;;;1.60;;
17965;SDS011;9108;53.204;10.424;2023-04-25T20:07:10;9.55;;;1.80;;
17965;SDS011;9108;53.204;10.424;2023-04-25T20:09:43;11.27;;;1.92;;
17965;SDS011;9108;53.204;10.424;2023-04-25T20:12:12;13.17;;;2.10;;
17965;SDS011;9108;53.204;10.424;2023-04-25T20:14:39;11.57;;;1.75;;
17965;SDS011;9108;53.204;10.424;2023-04-25T20:17:10;12.65;;;2.13;;
17965;SDS011;9108;53.204;10.424;2023-04-25T20:19:39;12.30;;;1.85;;
17965;SDS011;9108;53.204;10.424;2023-04-25T20:22:11;14.88;;;1.90;;
17965;SDS011;9108;53.204;10.424;2023-04-25T20:24:39;12.68;;;1.60;;
17965;SDS011;9108;53.204;10.424;2023-04-25T20:27:06;15.90;;;2.38;;
17965;SDS011;9108;53.204;10.424;2023-04-25T20:29:36;12.35;;;1.67;;
17965;SDS011;9108;53.204;10.424;2023-04-25T20:32:06;10.15;;;1.73;;
17965;SDS011;9108;53.204;10.424;2023-04-25T20:40:23;15.93;;;1.92;;
17965;SDS011;9108;53.204;10.424;2023-04-25T20:42:53;12.77;;;1.80;;
17965;SDS011;9108;53.204;10.424;2023-04-25T20:45:31;8.77;;;1.50;;
17965;SDS011;9108;53.204;10.424;2023-04-25T20:48:02;10.63;;;1.90;;
17965;SDS011;9108;53.204;10.424;2023-04-25T20:50:41;11.00;;;1.30;;
17965;SDS011;9108;53.204;10.424;2023-04-25T20:53:10;11.15;;;1.70;;
17965;SDS011;9108;53.204;10.424;2023-04-25T20:55:39;7.63;;;1.20;;
17965;SDS011;9108;53.204;10.424;2023-04-25T20:58:06;10.35;;;1.42;;
17965;SDS011;9108;53.204;10.424;2023-04-25T21:00:34;10.20;;;1.60;;
17965;SDS011;9108;53.204;10.424;2023-04-25T21:03:03;10.15;;;1.55;;
17965;SDS011;9108;53.204;10.424;2023-04-25T21:05:31;8.48;;;1.48;;
17965;SDS011;9108;53.204;10.424;2023-04-25T21:07:58;11.77;;;1.35;;
17965;SDS011;9108;53.204;10.424;2023-04-25T21:10:28;11.93;;;1.70;;
17965;SDS011;9108;53.204;10.424;2023-04-25T21:12:57;9.13;;;1.42;;
17965;SDS011;9108;53.204;10.424;2023-04-25T21:15:25;15.05;;;1.90;;
17965;SDS011;9108;53.204;10.424;2023-04-25T21:17:54;11.90;;;1.70;;
17965;SDS011;9108;53.204;10.424;2023-04-25T21:20:21;14.27;;;1.88;;
17965;SDS011;9108;53.204;10.424;2023-04-25T21:25:54;12.65;;;2.00;;
17965;SDS011;9108;53.204;10.424;2023-04-25T21:35:09;14.38;;;2.05;;
17965;SDS011;9108;53.204;10.424;2023-04-25T21:37:47;10.20;;;1.57;;
17965;SDS011;9108;53.204;10.424;2023-04-25T21:40:14;12.68;;;1.77;;
17965;SDS011;9108;53.204;10.424;2023-04-25T21:42:42;10.70;;;1.90;;
17965;SDS011;9108;53.204;10.424;2023-04-25T21:45:10;14.23;;;1.70;;
17965;SDS011;9108;53.204;10.424;2023-04-25T21:47:37;11.38;;;1.90;;
17965;SDS011;9108;53.204;10.424;2023-04-25T21:50:07;9.13;;;1.60;;
17965;SDS011;9108;53.204;10.424;2023-04-25T21:52:35;9.43;;;1.60;;
17965;SDS011;9108;53.204;10.424;2023-04-25T21:55:03;10.85;;;2.03;;
17965;SDS011;9108;53.204;10.424;2023-04-25T21:57:33;14.70;;;1.80;;
17965;SDS011;9108;53.204;10.424;2023-04-25T22:00:01;13.20;;;1.80;;
17965;SDS011;9108;53.204;10.424;2023-04-25T22:02:29;8.45;;;1.60;;
17965;SDS011;9108;53.204;10.424;2023-04-25T22:04:57;12.00;;;1.80;;
17965;SDS011;9108;53.204;10.424;2023-04-25T22:07:27;12.93;;;1.98;;
17965;SDS011;9108;53.204;10.424;2023-04-25T22:09:54;11.15;;;1.83;;
17965;SDS011;9108;53.204;10.424;2023-04-25T22:12:22;10.73;;;1.60;;
17965;SDS011;9108;53.204;10.424;2023-04-25T22:14:50;11.77;;;1.83;;
17965;SDS011;9108;53.204;10.424;2023-04-25T22:17:38;11.95;;;1.83;;
17965;SDS011;9108;53.204;10.424;2023-04-25T22:23:16;11.40;;;1.90;;
17965;SDS011;9108;53.204;10.424;2023-04-25T22:25:57;10.63;;;1.85;;
17965;SDS011;9108;53.204;10.424;2023-04-25T22:28:27;13.05;;;1.80;;
17965;SDS011;9108;53.204;10.424;2023-04-25T22:30:58;10.00;;;1.90;;
17965;SDS011;9108;53.204;10.424;2023-04-25T22:33:26;13.90;;;2.13;;
17965;SDS011;9108;53.204;10.424;2023-04-25T22:36:55;14.48;;;2.03;;
17965;SDS011;9108;53.204;10.424;2023-04-25T22:39:09;14.27;;;2.00;;
17965;SDS011;9108;53.204;10.424;2023-04-25T22:41:39;11.18;;;1.83;;
17965;SDS011;9108;53.204;10.424;2023-04-25T22:44:06;11.52;;;2.00;;
17965;SDS011;9108;53.204;10.424;2023-04-25T22:46:34;14.25;;;2.08;;
17965;SDS011;9108;53.204;10.424;2023-04-25T22:49:01;13.98;;;2.03;;
17965;SDS011;9108;53.204;10.424;2023-04-25T22:51:29;16.27;;;2.63;;
17965;SDS011;9108;53.204;10.424;2023-04-25T22:53:57;11.85;;;2.22;;
17965;SDS011;9108;53.204;10.424;2023-04-25T22:56:26;13.88;;;2.03;;
17965;SDS011;9108;53.204;10.424;2023-04-25T22:58:54;11.52;;;2.00;;
17965;SDS011;9108;53.204;10.424;2023-04-25T23:01:22;11.30;;;2.20;;
17965;SDS011;9108;53.204;10.424;2023-04-25T23:03:49;12.70;;;2.20;;
17965;SDS011;9108;53.204;10.424;2023-04-25T23:06:17;16.33;;;2.47;;
17965;SDS011;9108;53.204;10.424;2023-04-25T23:08:44;14.88;;;2.38;;
17965;SDS011;9108;53.204;10.424;2023-04-25T23:11:12;16.98;;;2.50;;
17965;SDS011;9108;53.204;10.424;2023-04-25T23:13:40;14.85;;;2.42;;
17965;SDS011;9108;53.204;10.424;2023-04-25T23:16:08;15.38;;;2.95;;
17965;SDS011;9108;53.204;10.424;2023-04-25T23:18:36;14.75;;;2.53;;
17965;SDS011;9108;53.204;10.424;2023-04-25T23:21:04;12.75;;;2.55;;
17965;SDS011;9108;53.204;10.424;2023-04-25T23:23:33;14.95;;;2.65;;
17965;SDS011;9108;53.204;10.424;2023-04-25T23:26:00;9.45;;;2.38;;
17965;SDS011;9108;53.204;10.424;2023-04-25T23:28:27;13.30;;;2.40;;
17965;SDS011;9108;53.204;10.424;2023-04-25T23:31:03;17.92;;;2.88;;
17965;SDS011;9108;53.204;10.424;2023-04-25T23:33:30;17.25;;;2.97;;
17965;SDS011;9108;53.204;10.424;2023-04-25T23:35:57;17.35;;;2.50;;
17965;SDS011;9108;53.204;10.424;2023-04-25T23:38:24;11.63;;;2.42;;
17965;SDS011;9108;53.204;10.424;2023-04-25T23:40:51;13.32;;;2.53;;
17965;SDS011;9108;53.204;10.424;2023-04-25T23:43:19;15.95;;;2.40;;
17965;SDS011;9108;53.204;10.424;2023-04-25T23:45:46;16.98;;;2.75;;
17965;SDS011;9108;53.204;10.424;2023-04-25T23:48:14;13.60;;;2.40;;
17965;SDS011;9108;53.204;10.424;2023-04-25T23:50:41;15.30;;;2.80;;
17965;SDS011;9108;53.204;10.424;2023-04-25T23:53:09;17.52;;;2.60;;
17965;SDS011;9108;53.204;10.424;2023-04-25T23:55:36;20.42;;;3.10;;
17965;SDS011;9108;53.204;10.424;2023-04-25T23:58:03;23.63;;;2.78;;
